sensor_id;sensor_type;location;lat;lon;timestamp;temperature;humidity
54846;DHT22;53889;50.084;8.646;2023-04-03T00:01:17;6.20;99.90
54846;DHT22;53889;50.084;8.646;2023-04-03T00:03:44;6.20;99.90
54846;DHT22;53889;50.084;8.646;2023-04-03T00:06:11;6.20;99.90
54846;DHT22;53889;50.084;8.646;2023-04-03T00:08:38;6.10;99.90
54846;DHT22;53889;50.084;8.646;2023-04-03T00:11:06;6.20;99.90
54846;DHT22;53889;50.084;8.646;2023-04-03T00:13:33;6.10;99.90
54846;DHT22;53889;50.084;8.646;2023-04-03T00:16:00;6.20;99.90
54846;DHT22;53889;50.084;8.646;2023-04-03T00:18:28;6.20;99.90
54846;DHT22;53889;50.084;8.646;2023-04-03T00:20:55;6.20;99.90
54846;DHT22;53889;50.084;8.646;2023-04-03T00:23:22;6.20;99.90
54846;DHT22;53889;50.084;8.646;2023-04-03T00:25:50;6.10;99.90
54846;DHT22;53889;50.084;8.646;2023-04-03T00:28:16;6.10;99.90
54846;DHT22;53889;50.084;8.646;2023-04-03T00:30:44;6.20;99.90
54846;DHT22;53889;50.084;8.646;2023-04-03T00:33:12;6.10;99.90
54846;DHT22;53889;50.084;8.646;2023-04-03T00:35:40;6.20;99.90
54846;DHT22;53889;50.084;8.646;2023-04-03T00:38:07;6.10;99.90
54846;DHT22;53889;50.084;8.646;2023-04-03T00:40:36;6.00;99.90
54846;DHT22;53889;50.084;8.646;2023-04-03T00:43:10;6.00;99.90
54846;DHT22;53889;50.084;8.646;2023-04-03T00:45:39;6.00;99.90
54846;DHT22;53889;50.084;8.646;2023-04-03T00:48:08;6.00;99.90
54846;DHT22;53889;50.084;8.646;2023-04-03T00:50:40;6.10;99.90
54846;DHT22;53889;50.084;8.646;2023-04-03T00:53:11;6.00;99.90
54846;DHT22;53889;50.084;8.646;2023-04-03T00:55:39;6.00;99.90
54846;DHT22;53889;50.084;8.646;2023-04-03T00:58:06;6.00;99.90
54846;DHT22;53889;50.084;8.646;2023-04-03T01:00:36;6.00;99.90
54846;DHT22;53889;50.084;8.646;2023-04-03T01:03:03;6.10;99.90
54846;DHT22;53889;50.084;8.646;2023-04-03T01:05:31;6.00;99.90
54846;DHT22;53889;50.084;8.646;2023-04-03T01:08:00;6.00;99.90
54846;DHT22;53889;50.084;8.646;2023-04-03T01:10:27;6.00;99.90
54846;DHT22;53889;50.084;8.646;2023-04-03T01:12:54;6.00;99.90
54846;DHT22;53889;50.084;8.646;2023-04-03T01:15:24;6.00;99.90
54846;DHT22;53889;50.084;8.646;2023-04-03T01:17:52;6.00;99.90
54846;DHT22;53889;50.084;8.646;2023-04-03T01:20:43;6.00;99.90
54846;DHT22;53889;50.084;8.646;2023-04-03T01:23:22;6.00;99.90
54846;DHT22;53889;50.084;8.646;2023-04-03T01:25:52;6.00;99.90
54846;DHT22;53889;50.084;8.646;2023-04-03T01:28:21;5.90;99.90
54846;DHT22;53889;50.084;8.646;2023-04-03T01:30:51;6.00;99.90
54846;DHT22;53889;50.084;8.646;2023-04-03T01:33:21;6.00;99.90
54846;DHT22;53889;50.084;8.646;2023-04-03T01:35:48;6.00;99.90
54846;DHT22;53889;50.084;8.646;2023-04-03T01:38:16;6.00;99.90
54846;DHT22;53889;50.084;8.646;2023-04-03T01:40:42;6.00;99.90
54846;DHT22;53889;50.084;8.646;2023-04-03T01:43:10;6.10;99.90
54846;DHT22;53889;50.084;8.646;2023-04-03T01:45:36;6.00;99.90
54846;DHT22;53889;50.084;8.646;2023-04-03T01:48:03;6.00;99.90
54846;DHT22;53889;50.084;8.646;2023-04-03T01:50:33;6.00;99.90
54846;DHT22;53889;50.084;8.646;2023-04-03T01:53:00;5.90;99.90
54846;DHT22;53889;50.084;8.646;2023-04-03T01:55:27;5.90;99.90
54846;DHT22;53889;50.084;8.646;2023-04-03T01:57:54;6.00;99.90
54846;DHT22;53889;50.084;8.646;2023-04-03T02:00:20;5.90;99.90
54846;DHT22;53889;50.084;8.646;2023-04-03T02:02:47;5.90;99.90
54846;DHT22;53889;50.084;8.646;2023-04-03T02:05:14;6.00;99.90
54846;DHT22;53889;50.084;8.646;2023-04-03T02:07:42;6.00;99.90
54846;DHT22;53889;50.084;8.646;2023-04-03T02:10:09;5.90;99.90
54846;DHT22;53889;50.084;8.646;2023-04-03T02:12:36;6.00;99.90
54846;DHT22;53889;50.084;8.646;2023-04-03T02:15:03;6.00;99.90
54846;DHT22;53889;50.084;8.646;2023-04-03T02:17:30;6.00;99.90
54846;DHT22;53889;50.084;8.646;2023-04-03T02:19:56;6.00;99.90
54846;DHT22;53889;50.084;8.646;2023-04-03T02:22:23;6.00;99.90
54846;DHT22;53889;50.084;8.646;2023-04-03T02:24:52;6.00;99.90
54846;DHT22;53889;50.084;8.646;2023-04-03T02:27:19;5.90;99.90
54846;DHT22;53889;50.084;8.646;2023-04-03T02:29:47;6.00;99.90
54846;DHT22;53889;50.084;8.646;2023-04-03T02:32:14;5.90;99.90
54846;DHT22;53889;50.084;8.646;2023-04-03T02:34:42;5.90;99.90
54846;DHT22;53889;50.084;8.646;2023-04-03T02:37:11;5.90;99.90
54846;DHT22;53889;50.084;8.646;2023-04-03T02:39:39;5.90;99.90
54846;DHT22;53889;50.084;8.646;2023-04-03T02:42:07;5.90;99.90
54846;DHT22;53889;50.084;8.646;2023-04-03T02:44:34;5.80;99.90
54846;DHT22;53889;50.084;8.646;2023-04-03T02:47:01;5.90;99.90
54846;DHT22;53889;50.084;8.646;2023-04-03T02:49:28;5.90;99.90
54846;DHT22;53889;50.084;8.646;2023-04-03T02:51:55;5.80;99.90
54846;DHT22;53889;50.084;8.646;2023-04-03T02:54:22;5.80;99.90
54846;DHT22;53889;50.084;8.646;2023-04-03T02:56:52;5.80;99.90
54846;DHT22;53889;50.084;8.646;2023-04-03T02:59:20;5.80;99.90
54846;DHT22;53889;50.084;8.646;2023-04-03T03:01:48;5.70;99.90
54846;DHT22;53889;50.084;8.646;2023-04-03T03:04:14;5.70;99.90
54846;DHT22;53889;50.084;8.646;2023-04-03T03:06:41;5.60;99.90
54846;DHT22;53889;50.084;8.646;2023-04-03T03:09:08;5.60;99.90
54846;DHT22;53889;50.084;8.646;2023-04-03T03:11:34;5.70;99.90
54846;DHT22;53889;50.084;8.646;2023-04-03T03:14:02;5.60;99.90
54846;DHT22;53889;50.084;8.646;2023-04-03T03:16:30;5.60;99.90
54846;DHT22;53889;50.084;8.646;2023-04-03T03:18:56;5.60;99.90
54846;DHT22;53889;50.084;8.646;2023-04-03T03:21:23;5.60;99.90
54846;DHT22;53889;50.084;8.646;2023-04-03T03:23:50;5.50;99.90
54846;DHT22;53889;50.084;8.646;2023-04-03T03:26:17;5.50;99.90
54846;DHT22;53889;50.084;8.646;2023-04-03T03:28:43;5.50;99.90
54846;DHT22;53889;50.084;8.646;2023-04-03T03:31:11;5.50;99.90
54846;DHT22;53889;50.084;8.646;2023-04-03T03:33:40;5.50;99.90
54846;DHT22;53889;50.084;8.646;2023-04-03T03:36:07;5.50;99.90
54846;DHT22;53889;50.084;8.646;2023-04-03T03:38:35;5.50;99.90
54846;DHT22;53889;50.084;8.646;2023-04-03T03:41:02;5.50;99.90
54846;DHT22;53889;50.084;8.646;2023-04-03T03:43:31;5.40;99.90
54846;DHT22;53889;50.084;8.646;2023-04-03T03:45:58;5.50;99.90
54846;DHT22;53889;50.084;8.646;2023-04-03T03:48:26;5.40;99.90
54846;DHT22;53889;50.084;8.646;2023-04-03T03:50:54;5.40;99.90
54846;DHT22;53889;50.084;8.646;2023-04-03T03:53:24;5.30;99.90
54846;DHT22;53889;50.084;8.646;2023-04-03T03:55:54;5.30;99.90
54846;DHT22;53889;50.084;8.646;2023-04-03T03:58:24;5.30;99.90
54846;DHT22;53889;50.084;8.646;2023-04-03T04:00:51;5.30;99.90
54846;DHT22;53889;50.084;8.646;2023-04-03T04:03:18;5.20;99.90
54846;DHT22;53889;50.084;8.646;2023-04-03T04:05:46;5.20;99.90
54846;DHT22;53889;50.084;8.646;2023-04-03T04:08:15;5.10;99.90
54846;DHT22;53889;50.084;8.646;2023-04-03T04:10:44;5.10;99.90
54846;DHT22;53889;50.084;8.646;2023-04-03T04:13:12;5.10;99.90
54846;DHT22;53889;50.084;8.646;2023-04-03T04:15:39;5.10;99.90
54846;DHT22;53889;50.084;8.646;2023-04-03T04:18:06;5.00;99.90
54846;DHT22;53889;50.084;8.646;2023-04-03T04:20:33;5.00;99.90
54846;DHT22;53889;50.084;8.646;2023-04-03T04:23:00;4.90;99.90
54846;DHT22;53889;50.084;8.646;2023-04-03T04:25:30;4.90;99.90
54846;DHT22;53889;50.084;8.646;2023-04-03T04:27:57;4.90;99.90
54846;DHT22;53889;50.084;8.646;2023-04-03T04:30:24;4.90;99.90
54846;DHT22;53889;50.084;8.646;2023-04-03T04:32:52;4.80;99.90
54846;DHT22;53889;50.084;8.646;2023-04-03T04:35:19;4.80;99.90
54846;DHT22;53889;50.084;8.646;2023-04-03T04:37:48;4.70;99.90
54846;DHT22;53889;50.084;8.646;2023-04-03T04:40:16;4.70;99.90
54846;DHT22;53889;50.084;8.646;2023-04-03T04:42:44;4.60;99.90
54846;DHT22;53889;50.084;8.646;2023-04-03T04:45:11;4.60;99.90
54846;DHT22;53889;50.084;8.646;2023-04-03T04:47:40;4.60;99.90
54846;DHT22;53889;50.084;8.646;2023-04-03T04:50:07;4.50;99.90
54846;DHT22;53889;50.084;8.646;2023-04-03T04:52:34;4.60;99.90
54846;DHT22;53889;50.084;8.646;2023-04-03T04:55:01;4.50;99.90
54846;DHT22;53889;50.084;8.646;2023-04-03T04:57:27;4.50;99.90
54846;DHT22;53889;50.084;8.646;2023-04-03T04:59:58;4.50;99.90
54846;DHT22;53889;50.084;8.646;2023-04-03T05:02:25;4.50;99.90
54846;DHT22;53889;50.084;8.646;2023-04-03T05:04:53;4.50;99.90
54846;DHT22;53889;50.084;8.646;2023-04-03T05:07:25;4.50;99.90
54846;DHT22;53889;50.084;8.646;2023-04-03T05:09:52;4.40;99.90
54846;DHT22;53889;50.084;8.646;2023-04-03T05:12:19;4.40;99.90
54846;DHT22;53889;50.084;8.646;2023-04-03T05:14:52;4.40;99.90
54846;DHT22;53889;50.084;8.646;2023-04-03T05:17:21;4.30;99.90
54846;DHT22;53889;50.084;8.646;2023-04-03T05:19:51;4.30;99.90
54846;DHT22;53889;50.084;8.646;2023-04-03T05:22:20;4.30;99.90
54846;DHT22;53889;50.084;8.646;2023-04-03T05:24:48;4.30;99.90
54846;DHT22;53889;50.084;8.646;2023-04-03T05:27:16;4.30;99.90
54846;DHT22;53889;50.084;8.646;2023-04-03T05:29:47;4.40;99.90
54846;DHT22;53889;50.084;8.646;2023-04-03T05:32:20;4.30;99.90
54846;DHT22;53889;50.084;8.646;2023-04-03T05:34:51;4.30;99.90
54846;DHT22;53889;50.084;8.646;2023-04-03T05:37:19;4.20;99.90
54846;DHT22;53889;50.084;8.646;2023-04-03T05:39:46;4.20;99.90
54846;DHT22;53889;50.084;8.646;2023-04-03T05:42:13;4.30;99.90
54846;DHT22;53889;50.084;8.646;2023-04-03T05:44:40;4.30;99.90
54846;DHT22;53889;50.084;8.646;2023-04-03T05:47:07;4.30;99.90
54846;DHT22;53889;50.084;8.646;2023-04-03T05:49:35;4.30;99.90
54846;DHT22;53889;50.084;8.646;2023-04-03T05:52:06;4.40;99.90
54846;DHT22;53889;50.084;8.646;2023-04-03T05:54:32;4.40;99.90
54846;DHT22;53889;50.084;8.646;2023-04-03T05:57:12;4.40;99.90
54846;DHT22;53889;50.084;8.646;2023-04-03T05:59:41;4.40;99.90
54846;DHT22;53889;50.084;8.646;2023-04-03T06:02:10;4.50;99.90
54846;DHT22;53889;50.084;8.646;2023-04-03T06:04:38;4.50;99.90
54846;DHT22;53889;50.084;8.646;2023-04-03T06:07:05;4.50;99.90
54846;DHT22;53889;50.084;8.646;2023-04-03T06:09:33;4.40;99.90
54846;DHT22;53889;50.084;8.646;2023-04-03T06:12:00;4.40;99.90
54846;DHT22;53889;50.084;8.646;2023-04-03T06:14:28;4.50;99.90
54846;DHT22;53889;50.084;8.646;2023-04-03T06:16:55;4.40;99.90
54846;DHT22;53889;50.084;8.646;2023-04-03T06:19:22;4.40;99.90
54846;DHT22;53889;50.084;8.646;2023-04-03T06:21:54;4.40;99.90
54846;DHT22;53889;50.084;8.646;2023-04-03T06:24:21;4.60;99.90
54846;DHT22;53889;50.084;8.646;2023-04-03T06:26:50;4.90;99.90
54846;DHT22;53889;50.084;8.646;2023-04-03T06:29:18;5.60;99.90
54846;DHT22;53889;50.084;8.646;2023-04-03T06:31:48;6.70;99.90
54846;DHT22;53889;50.084;8.646;2023-04-03T06:34:17;7.30;99.40
54846;DHT22;53889;50.084;8.646;2023-04-03T06:36:44;7.90;98.80
54846;DHT22;53889;50.084;8.646;2023-04-03T06:39:14;8.40;97.90
54846;DHT22;53889;50.084;8.646;2023-04-03T06:41:41;8.80;97.40
54846;DHT22;53889;50.084;8.646;2023-04-03T06:44:08;9.00;96.50
54846;DHT22;53889;50.084;8.646;2023-04-03T06:46:37;9.30;95.80
54846;DHT22;53889;50.084;8.646;2023-04-03T06:49:05;9.40;95.90
54846;DHT22;53889;50.084;8.646;2023-04-03T06:51:34;9.40;95.80
54846;DHT22;53889;50.084;8.646;2023-04-03T06:54:02;9.40;95.30
54846;DHT22;53889;50.084;8.646;2023-04-03T06:56:31;9.60;95.30
54846;DHT22;53889;50.084;8.646;2023-04-03T06:58:58;9.40;95.60
54846;DHT22;53889;50.084;8.646;2023-04-03T07:01:27;9.60;95.30
54846;DHT22;53889;50.084;8.646;2023-04-03T07:03:54;9.20;95.50
54846;DHT22;53889;50.084;8.646;2023-04-03T07:06:22;9.50;95.30
54846;DHT22;53889;50.084;8.646;2023-04-03T07:08:48;10.20;94.40
54846;DHT22;53889;50.084;8.646;2023-04-03T07:11:16;10.70;93.80
54846;DHT22;53889;50.084;8.646;2023-04-03T07:13:44;10.90;93.10
54846;DHT22;53889;50.084;8.646;2023-04-03T07:16:11;10.60;93.60
54846;DHT22;53889;50.084;8.646;2023-04-03T07:18:38;11.10;92.90
54846;DHT22;53889;50.084;8.646;2023-04-03T07:21:05;10.70;93.00
54846;DHT22;53889;50.084;8.646;2023-04-03T07:23:32;11.10;92.40
54846;DHT22;53889;50.084;8.646;2023-04-03T07:25:59;11.50;91.80
54846;DHT22;53889;50.084;8.646;2023-04-03T07:28:25;11.90;91.20
54846;DHT22;53889;50.084;8.646;2023-04-03T07:31:00;11.70;90.80
54846;DHT22;53889;50.084;8.646;2023-04-03T07:33:27;11.80;91.20
54846;DHT22;53889;50.084;8.646;2023-04-03T07:35:55;12.10;90.40
54846;DHT22;53889;50.084;8.646;2023-04-03T07:38:21;12.50;90.00
54846;DHT22;53889;50.084;8.646;2023-04-03T07:40:49;12.70;87.60
54846;DHT22;53889;50.084;8.646;2023-04-03T07:43:17;12.40;88.60
54846;DHT22;53889;50.084;8.646;2023-04-03T07:45:44;12.50;88.90
54846;DHT22;53889;50.084;8.646;2023-04-03T07:48:13;12.90;88.20
54846;DHT22;53889;50.084;8.646;2023-04-03T07:50:41;13.00;85.90
54846;DHT22;53889;50.084;8.646;2023-04-03T07:53:08;13.00;85.60
54846;DHT22;53889;50.084;8.646;2023-04-03T07:55:35;12.60;86.00
54846;DHT22;53889;50.084;8.646;2023-04-03T07:58:08;12.70;85.20
54846;DHT22;53889;50.084;8.646;2023-04-03T08:00:36;13.00;84.50
54846;DHT22;53889;50.084;8.646;2023-04-03T08:03:03;13.10;83.20
54846;DHT22;53889;50.084;8.646;2023-04-03T08:05:34;12.60;83.10
54846;DHT22;53889;50.084;8.646;2023-04-03T08:08:02;12.70;83.50
54846;DHT22;53889;50.084;8.646;2023-04-03T08:10:29;12.60;82.00
54846;DHT22;53889;50.084;8.646;2023-04-03T08:12:56;12.60;82.80
54846;DHT22;53889;50.084;8.646;2023-04-03T08:15:23;13.10;81.00
54846;DHT22;53889;50.084;8.646;2023-04-03T08:17:49;13.30;80.60
54846;DHT22;53889;50.084;8.646;2023-04-03T08:20:17;13.80;77.80
54846;DHT22;53889;50.084;8.646;2023-04-03T08:22:45;13.30;80.50
54846;DHT22;53889;50.084;8.646;2023-04-03T08:25:12;12.90;78.90
54846;DHT22;53889;50.084;8.646;2023-04-03T08:27:38;13.00;80.00
54846;DHT22;53889;50.084;8.646;2023-04-03T08:30:07;13.50;78.90
54846;DHT22;53889;50.084;8.646;2023-04-03T08:32:34;13.70;76.90
54846;DHT22;53889;50.084;8.646;2023-04-03T08:35:01;13.60;76.90
54846;DHT22;53889;50.084;8.646;2023-04-03T08:37:28;13.60;77.60
54846;DHT22;53889;50.084;8.646;2023-04-03T08:39:56;13.60;76.20
54846;DHT22;53889;50.084;8.646;2023-04-03T08:42:35;13.80;76.10
54846;DHT22;53889;50.084;8.646;2023-04-03T08:45:08;13.90;75.60
54846;DHT22;53889;50.084;8.646;2023-04-03T08:47:38;13.90;75.60
54846;DHT22;53889;50.084;8.646;2023-04-03T08:50:11;13.90;75.10
54846;DHT22;53889;50.084;8.646;2023-04-03T08:52:41;13.80;74.20
54846;DHT22;53889;50.084;8.646;2023-04-03T08:55:22;13.60;73.80
54846;DHT22;53889;50.084;8.646;2023-04-03T08:57:53;13.20;74.10
54846;DHT22;53889;50.084;8.646;2023-04-03T09:00:28;13.70;73.70
54846;DHT22;53889;50.084;8.646;2023-04-03T09:02:55;14.50;73.20
54846;DHT22;53889;50.084;8.646;2023-04-03T09:05:32;15.10;70.20
54846;DHT22;53889;50.084;8.646;2023-04-03T09:08:09;14.80;70.10
54846;DHT22;53889;50.084;8.646;2023-04-03T09:10:40;14.90;68.80
54846;DHT22;53889;50.084;8.646;2023-04-03T09:13:11;15.10;68.70
54846;DHT22;53889;50.084;8.646;2023-04-03T09:15:40;15.30;68.20
54846;DHT22;53889;50.084;8.646;2023-04-03T09:18:13;15.30;67.70
54846;DHT22;53889;50.084;8.646;2023-04-03T09:20:46;17.20;68.10
54846;DHT22;53889;50.084;8.646;2023-04-03T09:23:22;14.70;68.20
54846;DHT22;53889;50.084;8.646;2023-04-03T09:25:56;13.70;68.50
54846;DHT22;53889;50.084;8.646;2023-04-03T09:28:24;13.80;69.70
54846;DHT22;53889;50.084;8.646;2023-04-03T09:30:51;14.00;68.80
54846;DHT22;53889;50.084;8.646;2023-04-03T09:33:18;14.00;69.20
54846;DHT22;53889;50.084;8.646;2023-04-03T09:35:47;14.90;67.30
54846;DHT22;53889;50.084;8.646;2023-04-03T09:38:18;14.60;66.70
54846;DHT22;53889;50.084;8.646;2023-04-03T09:40:46;13.60;68.70
54846;DHT22;53889;50.084;8.646;2023-04-03T09:43:27;12.30;70.40
54846;DHT22;53889;50.084;8.646;2023-04-03T09:45:56;12.10;72.40
54846;DHT22;53889;50.084;8.646;2023-04-03T09:48:24;12.20;73.20
54846;DHT22;53889;50.084;8.646;2023-04-03T09:50:57;12.90;72.00
54846;DHT22;53889;50.084;8.646;2023-04-03T09:53:34;13.70;70.20
54846;DHT22;53889;50.084;8.646;2023-04-03T09:56:03;13.60;68.60
54846;DHT22;53889;50.084;8.646;2023-04-03T09:58:35;12.70;71.00
54846;DHT22;53889;50.084;8.646;2023-04-03T10:01:04;12.70;70.20
54846;DHT22;53889;50.084;8.646;2023-04-03T10:03:33;12.40;71.30
54846;DHT22;53889;50.084;8.646;2023-04-03T10:06:01;12.70;71.50
54846;DHT22;53889;50.084;8.646;2023-04-03T10:08:29;13.20;70.00
54846;DHT22;53889;50.084;8.646;2023-04-03T10:11:13;13.70;70.20
54846;DHT22;53889;50.084;8.646;2023-04-03T10:13:57;13.40;68.20
54846;DHT22;53889;50.084;8.646;2023-04-03T10:16:27;13.40;68.60
54846;DHT22;53889;50.084;8.646;2023-04-03T10:19:09;13.60;68.70
54846;DHT22;53889;50.084;8.646;2023-04-03T10:21:43;13.90;66.60
54846;DHT22;53889;50.084;8.646;2023-04-03T10:24:13;13.70;68.10
54846;DHT22;53889;50.084;8.646;2023-04-03T10:26:46;14.70;66.60
54846;DHT22;53889;50.084;8.646;2023-04-03T10:29:25;16.00;63.90
54846;DHT22;53889;50.084;8.646;2023-04-03T10:31:59;17.30;63.00
54846;DHT22;53889;50.084;8.646;2023-04-03T10:34:30;15.70;62.60
54846;DHT22;53889;50.084;8.646;2023-04-03T10:37:04;15.80;64.40
54846;DHT22;53889;50.084;8.646;2023-04-03T10:39:37;15.70;61.70
54846;DHT22;53889;50.084;8.646;2023-04-03T10:42:14;14.80;64.30
54846;DHT22;53889;50.084;8.646;2023-04-03T10:44:56;16.00;65.00
54846;DHT22;53889;50.084;8.646;2023-04-03T10:47:33;13.90;63.80
54846;DHT22;53889;50.084;8.646;2023-04-03T10:50:11;13.70;65.90
54846;DHT22;53889;50.084;8.646;2023-04-03T10:52:46;15.10;66.60
54846;DHT22;53889;50.084;8.646;2023-04-03T10:55:24;14.20;65.10
54846;DHT22;53889;50.084;8.646;2023-04-03T10:57:56;15.20;63.60
54846;DHT22;53889;50.084;8.646;2023-04-03T11:00:36;15.30;62.90
54846;DHT22;53889;50.084;8.646;2023-04-03T11:03:07;14.70;62.90
54846;DHT22;53889;50.084;8.646;2023-04-03T11:05:41;14.70;63.70
54846;DHT22;53889;50.084;8.646;2023-04-03T11:08:14;15.20;61.60
54846;DHT22;53889;50.084;8.646;2023-04-03T11:10:46;15.30;61.90
54846;DHT22;53889;50.084;8.646;2023-04-03T11:13:17;15.20;61.90
54846;DHT22;53889;50.084;8.646;2023-04-03T11:15:46;15.10;60.70
54846;DHT22;53889;50.084;8.646;2023-04-03T11:18:15;15.60;59.00
54846;DHT22;53889;50.084;8.646;2023-04-03T11:20:58;16.30;59.00
54846;DHT22;53889;50.084;8.646;2023-04-03T11:23:30;16.30;58.60
54846;DHT22;53889;50.084;8.646;2023-04-03T11:26:07;16.30;57.70
54846;DHT22;53889;50.084;8.646;2023-04-03T11:28:35;15.80;57.50
54846;DHT22;53889;50.084;8.646;2023-04-03T11:31:12;15.20;58.20
54846;DHT22;53889;50.084;8.646;2023-04-03T11:33:47;15.30;58.40
54846;DHT22;53889;50.084;8.646;2023-04-03T11:36:21;15.40;58.70
54846;DHT22;53889;50.084;8.646;2023-04-03T11:38:49;16.10;57.40
54846;DHT22;53889;50.084;8.646;2023-04-03T11:41:25;16.00;55.10
54846;DHT22;53889;50.084;8.646;2023-04-03T11:43:58;15.80;56.80
54846;DHT22;53889;50.084;8.646;2023-04-03T11:46:52;16.00;56.30
54846;DHT22;53889;50.084;8.646;2023-04-03T11:49:55;16.10;55.20
54846;DHT22;53889;50.084;8.646;2023-04-03T11:55:59;16.50;54.00
54846;DHT22;53889;50.084;8.646;2023-04-03T11:58:29;16.40;52.90
54846;DHT22;53889;50.084;8.646;2023-04-03T12:00:59;15.80;54.90
54846;DHT22;53889;50.084;8.646;2023-04-03T12:10:19;14.40;54.90
54846;DHT22;53889;50.084;8.646;2023-04-03T12:12:57;14.80;55.80
54846;DHT22;53889;50.084;8.646;2023-04-03T12:15:52;15.30;55.50
54846;DHT22;53889;50.084;8.646;2023-04-03T12:18:56;15.00;53.70
54846;DHT22;53889;50.084;8.646;2023-04-03T12:24:33;14.50;54.90
54846;DHT22;53889;50.084;8.646;2023-04-03T12:27:23;15.60;54.10
54846;DHT22;53889;50.084;8.646;2023-04-03T12:29:55;16.30;52.60
54846;DHT22;53889;50.084;8.646;2023-04-03T12:32:41;15.60;53.40
54846;DHT22;53889;50.084;8.646;2023-04-03T12:35:19;15.40;53.90
54846;DHT22;53889;50.084;8.646;2023-04-03T12:41:16;15.20;54.10
54846;DHT22;53889;50.084;8.646;2023-04-03T12:43:56;15.70;52.80
54846;DHT22;53889;50.084;8.646;2023-04-03T12:46:32;16.10;53.20
54846;DHT22;53889;50.084;8.646;2023-04-03T12:49:00;15.80;53.20
54846;DHT22;53889;50.084;8.646;2023-04-03T12:51:33;15.50;52.80
54846;DHT22;53889;50.084;8.646;2023-04-03T12:54:03;15.10;52.50
54846;DHT22;53889;50.084;8.646;2023-04-03T12:56:32;14.40;53.60
54846;DHT22;53889;50.084;8.646;2023-04-03T12:59:14;14.20;54.90
54846;DHT22;53889;50.084;8.646;2023-04-03T13:01:42;14.70;52.80
54846;DHT22;53889;50.084;8.646;2023-04-03T13:04:10;14.90;52.90
54846;DHT22;53889;50.084;8.646;2023-04-03T13:06:39;14.70;53.00
54846;DHT22;53889;50.084;8.646;2023-04-03T13:09:18;14.90;53.80
54846;DHT22;53889;50.084;8.646;2023-04-03T13:11:49;15.50;52.60
54846;DHT22;53889;50.084;8.646;2023-04-03T13:14:18;15.70;52.00
54846;DHT22;53889;50.084;8.646;2023-04-03T13:16:53;15.40;51.50
54846;DHT22;53889;50.084;8.646;2023-04-03T13:19:22;15.70;52.00
54846;DHT22;53889;50.084;8.646;2023-04-03T13:21:51;15.10;52.50
54846;DHT22;53889;50.084;8.646;2023-04-03T13:24:21;14.60;52.70
54846;DHT22;53889;50.084;8.646;2023-04-03T13:26:51;14.30;53.50
54846;DHT22;53889;50.084;8.646;2023-04-03T13:29:22;13.80;53.50
54846;DHT22;53889;50.084;8.646;2023-04-03T13:31:52;13.30;54.90
54846;DHT22;53889;50.084;8.646;2023-04-03T13:34:20;13.10;55.80
54846;DHT22;53889;50.084;8.646;2023-04-03T13:36:56;12.50;57.30
54846;DHT22;53889;50.084;8.646;2023-04-03T13:39:25;12.10;57.50
54846;DHT22;53889;50.084;8.646;2023-04-03T13:41:55;12.10;57.50
54846;DHT22;53889;50.084;8.646;2023-04-03T13:44:30;11.70;58.30
54846;DHT22;53889;50.084;8.646;2023-04-03T13:46:59;12.10;58.60
54846;DHT22;53889;50.084;8.646;2023-04-03T13:49:32;12.20;57.20
54846;DHT22;53889;50.084;8.646;2023-04-03T13:52:00;11.90;58.40
54846;DHT22;53889;50.084;8.646;2023-04-03T13:54:31;11.90;57.80
54846;DHT22;53889;50.084;8.646;2023-04-03T13:57:01;11.40;58.00
54846;DHT22;53889;50.084;8.646;2023-04-03T13:59:30;11.30;58.80
54846;DHT22;53889;50.084;8.646;2023-04-03T14:02:13;11.10;58.50
54846;DHT22;53889;50.084;8.646;2023-04-03T14:04:53;11.10;59.00
54846;DHT22;53889;50.084;8.646;2023-04-03T14:07:23;11.20;58.70
54846;DHT22;53889;50.084;8.646;2023-04-03T14:09:51;10.90;59.80
54846;DHT22;53889;50.084;8.646;2023-04-03T14:12:24;11.00;59.60
54846;DHT22;53889;50.084;8.646;2023-04-03T14:14:52;11.00;59.00
54846;DHT22;53889;50.084;8.646;2023-04-03T14:17:22;11.10;59.60
54846;DHT22;53889;50.084;8.646;2023-04-03T14:19:50;10.90;59.20
54846;DHT22;53889;50.084;8.646;2023-04-03T14:22:19;11.00;60.00
54846;DHT22;53889;50.084;8.646;2023-04-03T14:24:48;10.80;60.80
54846;DHT22;53889;50.084;8.646;2023-04-03T14:27:19;10.60;59.90
54846;DHT22;53889;50.084;8.646;2023-04-03T14:29:47;10.70;60.30
54846;DHT22;53889;50.084;8.646;2023-04-03T14:32:15;10.50;60.00
54846;DHT22;53889;50.084;8.646;2023-04-03T14:34:43;10.70;60.10
54846;DHT22;53889;50.084;8.646;2023-04-03T14:37:12;10.00;60.40
54846;DHT22;53889;50.084;8.646;2023-04-03T14:39:39;10.40;59.70
54846;DHT22;53889;50.084;8.646;2023-04-03T14:42:12;10.50;59.20
54846;DHT22;53889;50.084;8.646;2023-04-03T14:44:40;10.20;59.70
54846;DHT22;53889;50.084;8.646;2023-04-03T14:47:10;10.20;59.90
54846;DHT22;53889;50.084;8.646;2023-04-03T14:49:37;10.30;60.70
54846;DHT22;53889;50.084;8.646;2023-04-03T14:52:04;10.50;60.00
54846;DHT22;53889;50.084;8.646;2023-04-03T14:54:31;10.20;60.40
54846;DHT22;53889;50.084;8.646;2023-04-03T14:56:59;10.10;60.90
54846;DHT22;53889;50.084;8.646;2023-04-03T14:59:26;10.20;61.10
54846;DHT22;53889;50.084;8.646;2023-04-03T15:01:55;10.20;61.70
54846;DHT22;53889;50.084;8.646;2023-04-03T15:04:22;10.20;61.30
54846;DHT22;53889;50.084;8.646;2023-04-03T15:06:49;10.20;61.90
54846;DHT22;53889;50.084;8.646;2023-04-03T15:09:20;10.20;62.00
54846;DHT22;53889;50.084;8.646;2023-04-03T15:11:50;10.00;61.50
54846;DHT22;53889;50.084;8.646;2023-04-03T15:14:17;10.20;62.10
54846;DHT22;53889;50.084;8.646;2023-04-03T15:16:44;10.20;62.00
54846;DHT22;53889;50.084;8.646;2023-04-03T15:19:12;10.20;61.90
54846;DHT22;53889;50.084;8.646;2023-04-03T15:21:39;10.20;61.60
54846;DHT22;53889;50.084;8.646;2023-04-03T15:24:06;10.00;61.20
54846;DHT22;53889;50.084;8.646;2023-04-03T15:26:33;9.70;62.20
54846;DHT22;53889;50.084;8.646;2023-04-03T15:29:00;9.60;61.30
54846;DHT22;53889;50.084;8.646;2023-04-03T15:31:27;9.60;62.10
54846;DHT22;53889;50.084;8.646;2023-04-03T15:33:54;9.70;62.20
54846;DHT22;53889;50.084;8.646;2023-04-03T15:36:21;9.70;61.30
54846;DHT22;53889;50.084;8.646;2023-04-03T15:38:48;9.80;61.40
54846;DHT22;53889;50.084;8.646;2023-04-03T15:41:16;9.80;61.80
54846;DHT22;53889;50.084;8.646;2023-04-03T15:43:43;9.90;61.70
54846;DHT22;53889;50.084;8.646;2023-04-03T15:46:09;9.70;61.00
54846;DHT22;53889;50.084;8.646;2023-04-03T15:48:36;9.70;61.80
54846;DHT22;53889;50.084;8.646;2023-04-03T15:51:03;9.60;61.90
54846;DHT22;53889;50.084;8.646;2023-04-03T15:53:32;9.50;61.90
54846;DHT22;53889;50.084;8.646;2023-04-03T15:55:59;9.40;61.60
54846;DHT22;53889;50.084;8.646;2023-04-03T15:58:25;9.50;62.30
54846;DHT22;53889;50.084;8.646;2023-04-03T16:00:52;9.60;61.80
54846;DHT22;53889;50.084;8.646;2023-04-03T16:03:21;9.70;61.60
54846;DHT22;53889;50.084;8.646;2023-04-03T16:05:50;9.70;61.60
54846;DHT22;53889;50.084;8.646;2023-04-03T16:08:17;9.60;61.90
54846;DHT22;53889;50.084;8.646;2023-04-03T16:10:45;9.60;61.90